Архив погоды на Айон Острове

Метеограмма Айон Остров
Четверг, 17 Августа
Время местн. Темп Ветер Видим Явления Облачность нижн/средн/верх Атм. давл. Влжн Точка росы ВНГО R Сост. почвы Tg s
Напр Скр Прв ур.ст ур.м изм
00:00 +4.7° С,С-В 3 7 20 км небо без изменений {дождь} облачно 752 753 -0.9 82% +1.9° 600 м - - - -
Среда, 16 Августа
Время местн. Темп Ветер Видим Явления Облачность нижн/средн/верх Атм. давл. Влжн Точка росы ВНГО R Сост. почвы Tg s
Напр Скр Прв ур.ст ур.м изм
21:00 +5.5° С-В 3 4 20 км слабый непрерывный дождь облачно 753 754 -0.8 95% +4.8° 600 м 2 - - -
18:00 +6.3° С-В 2 5 20 км слабый непрерывный дождь облачно 753 755 -1.1 95% +5.6° 600 м - - - -
15:00 +6.3° С-В 2 3 20 км слабый непрерывный дождь облачно 754 756 -1.2 95% +5.6° 600 м - - - -
12:00 +6.7° С,С-В 2 2 20 км слабый непрерывный дождь облачно 756 757 -1.7 95% +5.9° 600 м - - - -
09:00 +6.4° З,С-З 2 4 20 км слабый непрерывный дождь облачно 757 759 -1.1 95% +5.7° 600 м 2 Влажная (без луж) +6° -
06:00 +6.8° С-З 3 7 20 км небо без изменений {дождь} облачно 758 760 -0.8 94% +5.9° 300 м - - - -
03:00 +6.9° С-З 4 8 10 км умеренный непрерывный дождь облачно 759 760 -1.1 95% +6.1° 600 м - - - -
00:00 +6.9° З,С-З 6 8 10 км небо без изменений {дождь} облачно 760 762 -0.5 93% +5.8° 300 м - - - -
Вторник, 15 Августа
Время местн. Темп Ветер Видим Явления Облачность нижн/средн/верх Атм. давл. Влжн Точка росы ВНГО R Сост. почвы Tg s
Напр Скр Прв ур.ст ур.м изм
21:00 +6.7° С-З 6 15 20 км - облачно 761 762 +0.5 94% +5.8° 300 м 0.9 - - -
18:00 +6.4° С-З 9 16 20 км небо без изменений {дождь} облачно 760 762 +1.7 96% +5.8° 600 м - - - -
15:00 +9.9° З 6 14 20 км дождь облачно 759 760 -0.6 95% +9.1° более 2.5 км - - - -
12:00 +10.4° Ю-З 9 12 20 км - облачно 759 760 -1.8 85% +8° более 2.5 км - - - -
09:00 +9° Ю-З 6 9 20 км - облачно 761 762 -0.4 83% +6.3° более 2.5 км 0 Сухая (без трещин) +2° -
06:00 +8.6° З,Ю-З 3 5 20 км - переменная облачность 761 763 0 92% +7.4° более 2.5 км - - - -
03:00 +7.5° З 2 6 20 км - переменная облачность 761 763 -0.4 92% +6.3° более 2.5 км - - - -
00:00 +5.5° Ю 5 7 20 км - облачно с прояснениями 762 763 -0.4 93% +4.5° более 2.5 км - - - -
Понедельник, 14 Августа
Время местн. Темп Ветер Видим Явления Облачность нижн/средн/верх Атм. давл. Влжн Точка росы ВНГО R Сост. почвы Tg s
Напр Скр Прв ур.ст ур.м изм
21:00 +10.7° Ю 5 9 20 км - облачно 762 763 -0.3 68% +5° более 2.5 км 0 - - -
18:00 +14° Ю,Ю-В 7 9 20 км - облачно 762 764 -0.6 52% +4.3° более 2.5 км - - - -
15:00 +14.1° Ю 7 12 20 км - переменная облачность 763 764 -1 48% +3.2° более 2.5 км - - - -
12:00 +12° Ю,Ю-В 9 12 20 км - ясно 764 765 -1 56% +3.4° более 2.5 км - - - -
09:00 +9.1° Ю,Ю-В 8 11 20 км - ясно 765 766 -0.4 70% +4° более 2.5 км 0 Сухая (без трещин) -1° -
06:00 +4.4° Ю-В 4 7 20 км - переменная облачность 765 767 -0.4 94% +3.5° более 2.5 км - - - -
03:00 +0.9° Ю-В 5 6 20 км - переменная облачность 766 767 -0.5 96% +0.4° более 2.5 км - - - -
00:00 +1.9° В 4 7 20 км - облачно с прояснениями 766 768 +0.1 94% +1.1° более 2.5 км - - - -
Воскресенье, 13 Августа
Время местн. Темп Ветер Видим Явления Облачность нижн/средн/верх Атм. давл. Влжн Точка росы ВНГО R Сост. почвы Tg s
Напр Скр Прв ур.ст ур.м изм
21:00 +4.8° В 4 9 20 км - переменная облачность 766 767 +0.5 89% +3.1° более 2.5 км 0 - - -